Time;durP1;ratioP1;P1;durP2;ratioP2;P2;SDS_P1;SDS_P2;PMS_P1;PMS_P2;Temp;Humidity;BMP_temperature;BMP_pressure;BME280_temperature;BME280_humidity;BME280_pressure;Samples;Min_cycle;Max_cycle;Signal;HPM_P1;HPM_P2
2021/04/11 00:00:37;;;;;;;5.93;4.25;;;;;;;11.04;63.70;95693.38;5060707;28;20196;-70
2021/04/11 00:03:07;;;;;;;6.68;3.45;;;;;;;11.01;65.15;95695.59;5060245;28;20204;-70
2021/04/11 00:05:35;;;;;;;4.72;3.50;;;;;;;11.00;68.01;95691.31;5058681;28;20213;-70
2021/04/11 00:08:04;;;;;;;5.32;3.35;;;;;;;11.02;67.93;95684.84;5060661;28;20258;-72
2021/04/11 00:10:32;;;;;;;7.90;3.80;;;;;;;10.93;71.10;95684.38;5059375;28;20212;-72
2021/04/11 00:12:59;;;;;;;7.30;3.77;;;;;;;10.80;76.34;95679.00;5060173;28;20207;-71
2021/04/11 00:15:25;;;;;;;6.67;3.90;;;;;;;10.75;78.93;95681.41;5059227;28;20290;-69
2021/04/11 00:17:51;;;;;;;7.77;3.80;;;;;;;10.68;77.34;95680.53;5059938;28;20212;-71
2021/04/11 00:20:19;;;;;;;6.07;3.80;;;;;;;10.60;76.50;95681.50;5059551;28;20209;-73
2021/04/11 00:22:46;;;;;;;8.33;4.27;;;;;;;10.57;78.94;95681.06;5060144;28;20196;-70
2021/04/11 00:25:16;;;;;;;7.65;3.70;;;;;;;10.41;82.51;95683.94;5058266;28;20956;-70
2021/04/11 00:27:42;;;;;;;11.23;4.00;;;;;;;10.46;81.02;95676.28;5059998;28;20203;-70
2021/04/11 00:30:09;;;;;;;16.83;4.20;;;;;;;10.49;80.16;95675.94;5059607;28;20614;-74
2021/04/11 00:32:35;;;;;;;9.00;3.57;;;;;;;10.48;80.17;95672.47;5058966;28;20747;-71
2021/04/11 00:35:01;;;;;;;15.00;3.50;;;;;;;10.32;81.81;95664.00;5058425;28;20220;-74
2021/04/11 00:37:28;;;;;;;8.30;3.27;;;;;;;10.34;80.72;95667.28;5059460;28;20229;-70
2021/04/11 00:39:54;;;;;;;7.13;3.60;;;;;;;10.27;79.70;95662.97;5059287;28;20674;-70
2021/04/11 00:42:32;;;;;;;7.67;3.20;;;;;;;10.37;79.43;95661.63;5059814;28;20219;-74
2021/04/11 00:45:08;;;;;;;9.20;3.17;;;;;;;10.42;79.77;95659.25;5059319;28;20212;-70
2021/04/11 00:47:35;;;;;;;9.33;3.43;;;;;;;10.30;82.20;95655.50;5058702;28;20200;-74
2021/04/11 00:50:04;;;;;;;13.17;3.40;;;;;;;10.33;83.70;95663.84;5059225;28;20204;-74
2021/04/11 00:52:31;;;;;;;10.37;3.07;;;;;;;10.34;84.82;95656.75;5059404;28;20200;-71
2021/04/11 00:54:57;;;;;;;9.10;3.20;;;;;;;10.33;87.78;95649.84;5058731;28;20232;-70
2021/04/11 00:57:23;;;;;;;9.10;2.93;;;;;;;10.34;85.16;95644.38;5058338;28;21078;-69
2021/04/11 00:59:49;;;;;;;7.72;2.97;;;;;;;10.18;86.22;95643.81;5059139;28;20504;-72
2021/04/11 01:02:15;;;;;;;7.10;3.00;;;;;;;10.19;86.84;95640.19;5058788;28;20205;-74
2021/04/11 01:04:41;;;;;;;8.63;3.07;;;;;;;10.09;87.33;95641.53;5058479;28;20254;-71
2021/04/11 01:07:10;;;;;;;6.70;3.20;;;;;;;10.21;86.38;95635.56;5056962;28;20306;-70
2021/04/11 01:09:40;;;;;;;6.33;3.10;;;;;;;10.08;85.28;95640.72;5059193;28;20201;-71
2021/04/11 01:12:10;;;;;;;6.30;3.27;;;;;;;10.18;86.48;95635.94;5058659;28;20649;-73
2021/04/11 01:14:37;;;;;;;9.00;3.33;;;;;;;10.10;86.53;95641.31;5057849;28;20200;-70
2021/04/11 01:17:06;;;;;;;4.80;2.70;;;;;;;10.09;89.15;95629.16;5056657;28;20675;-71
2021/04/11 01:19:35;;;;;;;4.03;2.73;;;;;;;9.97;90.69;95637.78;5059458;28;20201;-71
2021/04/11 01:22:13;;;;;;;5.80;2.97;;;;;;;9.85;90.61;95645.31;5058621;28;20200;-73
2021/04/11 01:24:42;;;;;;;6.80;3.03;;;;;;;9.70;89.81;95647.16;5058840;28;20670;-73
2021/04/11 01:27:10;;;;;;;4.80;2.97;;;;;;;9.63;93.61;95634.13;5057692;28;20227;-74
2021/04/11 01:29:37;;;;;;;4.83;2.93;;;;;;;9.70;92.78;95636.63;5058914;28;20211;-70
2021/04/11 01:32:05;;;;;;;4.53;3.43;;;;;;;9.79;88.58;95625.00;5058061;28;20204;-71
2021/04/11 01:34:31;;;;;;;5.40;3.60;;;;;;;9.76;87.41;95625.38;5058828;28;20196;-73
2021/04/11 01:36:58;;;;;;;7.80;3.57;;;;;;;9.80;86.77;95626.63;5057590;28;20255;-72
2021/04/11 01:39:27;;;;;;;8.60;3.47;;;;;;;9.86;87.23;95619.81;5058367;28;20204;-69
2021/04/11 01:41:55;;;;;;;7.87;3.13;;;;;;;9.69;91.04;95621.84;5058355;28;21108;-70
2021/04/11 01:44:24;;;;;;;6.13;3.10;;;;;;;9.75;91.83;95626.38;5058358;28;20205;-70
2021/04/11 01:46:52;;;;;;;5.27;3.10;;;;;;;9.64;91.43;95620.78;5056662;28;20228;-70
2021/04/11 01:49:19;;;;;;;7.73;2.90;;;;;;;9.59;91.48;95617.09;5057910;28;20257;-70
2021/04/11 01:51:48;;;;;;;8.63;3.00;;;;;;;9.54;90.91;95615.00;5058106;28;20196;-70
2021/04/11 01:54:18;;;;;;;6.00;3.20;;;;;;;9.22;91.94;95630.41;5057838;28;20201;-70
2021/04/11 01:56:45;;;;;;;6.77;4.90;;;;;;;9.44;89.55;95629.47;5056983;28;20224;-70
2021/04/11 01:59:14;;;;;;;8.30;4.90;;;;;;;9.41;87.97;95625.38;5057981;28;20220;-73
2021/04/11 02:01:41;;;;;;;8.77;5.23;;;;;;;9.53;86.52;95628.34;5057870;28;20200;-69
2021/04/11 02:04:08;;;;;;;7.77;5.17;;;;;;;9.39;88.30;95629.19;5057088;28;20204;-69
2021/04/11 02:06:37;;;;;;;9.17;4.63;;;;;;;9.37;89.54;95623.31;5052603;28;20229;-73
2021/04/11 02:09:08;;;;;;;9.27;5.10;;;;;;;9.26;89.25;95629.03;5057649;28;20205;-70
2021/04/11 02:11:34;;;;;;;7.93;5.03;;;;;;;9.14;90.00;95628.69;5057216;28;20253;-69
2021/04/11 02:14:00;;;;;;;10.67;5.27;;;;;;;9.04;91.01;95627.34;5058075;28;20904;-70
2021/04/11 02:16:31;;;;;;;7.73;5.10;;;;;;;9.07;91.09;95626.97;5056413;28;20228;-73
2021/04/11 02:19:02;;;;;;;11.27;5.50;;;;;;;9.12;89.64;95627.22;5056756;28;20207;-73
2021/04/11 02:21:29;;;;;;;11.60;5.50;;;;;;;9.06;88.44;95627.97;5058731;28;20210;-69
2021/04/11 02:23:56;;;;;;;9.77;5.33;;;;;;;8.91;90.29;95621.91;5057264;28;20232;-69
2021/04/11 02:26:23;;;;;;;11.07;6.43;;;;;;;8.83;88.05;95624.59;5056618;28;20220;-71
2021/04/11 02:28:49;;;;;;;13.67;6.43;;;;;;;8.91;86.84;95619.28;5057547;28;20201;-73
2021/04/11 02:31:19;;;;;;;13.67;7.20;;;;;;;8.92;86.39;95618.25;5057352;28;20204;-70
2021/04/11 02:34:02;;;;;;;12.20;6.23;;;;;;;9.04;85.76;95616.00;5056655;28;20196;-70
2021/04/11 02:36:34;;;;;;;9.60;6.07;;;;;;;9.04;84.40;95621.25;5056522;28;20369;-71
2021/04/11 02:39:02;;;;;;;10.47;6.73;;;;;;;8.94;85.38;95616.28;5057151;28;20201;-70
2021/04/11 02:41:28;;;;;;;11.67;6.73;;;;;;;8.95;85.18;95617.91;5056943;28;20205;-69
2021/04/11 02:43:55;;;;;;;11.33;7.23;;;;;;;8.92;86.63;95620.09;5056760;28;21046;-71
2021/04/11 02:46:22;;;;;;;14.57;7.20;;;;;;;8.90;87.12;95617.66;5056544;28;20573;-71
2021/04/11 02:48:53;;;;;;;14.27;6.70;;;;;;;8.70;88.51;95618.38;5056622;28;20201;-69
2021/04/11 02:51:21;;;;;;;10.23;5.70;;;;;;;8.83;87.97;95615.91;5057091;28;20207;-71
2021/04/11 02:53:47;;;;;;;10.50;5.27;;;;;;;8.80;87.88;95608.41;5057158;28;20211;-69
2021/04/11 02:56:16;;;;;;;7.93;4.57;;;;;;;8.77;88.44;95614.84;5056001;28;20282;-72
2021/04/11 02:58:42;;;;;;;6.53;3.90;;;;;;;8.66;88.71;95612.66;5056744;28;20211;-70
2021/04/11 03:01:13;;;;;;;6.53;4.03;;;;;;;8.50;89.54;95612.00;5057188;28;20223;-71
2021/04/11 03:03:39;;;;;;;5.77;3.43;;;;;;;8.48;89.80;95609.56;5056634;28;20599;-72
2021/04/11 03:06:11;;;;;;;7.07;3.40;;;;;;;8.46;90.59;95607.31;5055662;28;20779;-72
2021/04/11 03:08:42;;;;;;;4.90;3.13;;;;;;;8.35;90.87;95608.56;5056639;28;20204;-72
2021/04/11 03:11:18;;;;;;;5.80;3.20;;;;;;;8.39;90.80;95606.38;5056742;28;20216;-72
2021/04/11 03:13:46;;;;;;;6.83;3.07;;;;;;;8.33;91.28;95601.84;5056677;28;20204;-71
2021/04/11 03:16:13;;;;;;;4.80;3.10;;;;;;;8.20;92.34;95604.28;5055689;28;20235;-67
2021/04/11 03:18:41;;;;;;;4.63;3.27;;;;;;;8.21;93.10;95600.63;5060272;28;20199;-71
2021/04/11 03:21:08;;;;;;;4.97;3.33;;;;;;;8.18;93.08;95595.75;5062591;28;20295;-71
2021/04/11 03:23:34;;;;;;;4.20;3.07;;;;;;;8.17;92.79;95591.50;5063137;28;20239;-68
2021/04/11 03:26:08;;;;;;;4.30;3.13;;;;;;;8.22;93.00;95583.91;5062327;28;20216;-69
2021/04/11 03:28:40;;;;;;;8.50;3.30;;;;;;;8.33;92.61;95580.84;5062980;28;20196;-70
2021/04/11 03:31:12;;;;;;;5.27;3.30;;;;;;;8.36;92.92;95588.38;5062934;28;20219;-69
2021/04/11 03:33:40;;;;;;;11.00;3.40;;;;;;;8.39;92.24;95583.59;5064161;28;20704;-72
2021/04/11 03:36:11;;;;;;;8.47;2.93;;;;;;;8.25;93.21;95591.41;5061862;28;20236;-70
2021/04/11 03:38:38;;;;;;;8.50;2.87;;;;;;;8.28;93.12;95583.19;5063276;28;20695;-71
2021/04/11 03:41:05;;;;;;;6.90;2.80;;;;;;;8.32;92.80;95589.72;5062858;28;20743;-72
2021/04/11 03:43:37;;;;;;;7.53;3.00;;;;;;;8.34;91.21;95593.78;5063335;28;20207;-68
2021/04/11 03:46:08;;;;;;;5.20;2.93;;;;;;;8.46;90.39;95597.59;5061440;28;20231;-71
2021/04/11 03:48:41;;;;;;;5.03;2.60;;;;;;;8.40;90.70;95597.50;5063232;28;20197;-71
2021/04/11 03:51:11;;;;;;;5.00;2.77;;;;;;;8.46;92.51;95602.06;5062986;28;20205;-71
2021/04/11 03:53:43;;;;;;;4.33;2.73;;;;;;;8.40;94.11;95594.88;5063536;28;20209;-70
2021/04/11 03:56:13;;;;;;;4.97;2.90;;;;;;;8.29;94.85;95596.13;5061872;28;20690;-71
2021/04/11 03:58:43;;;;;;;5.90;3.60;;;;;;;8.19;93.66;95595.56;5063360;28;20197;-68
2021/04/11 04:01:14;;;;;;;4.97;3.27;;;;;;;8.22;94.15;95591.78;5062990;28;20204;-68
2021/04/11 04:03:43;;;;;;;7.43;3.40;;;;;;;8.23;94.35;95594.22;5063465;28;20196;-72
2021/04/11 04:06:14;;;;;;;6.63;3.20;;;;;;;8.21;94.98;95596.22;5061617;28;20220;-71
2021/04/11 04:08:40;;;;;;;7.23;3.90;;;;;;;8.37;90.93;95592.63;5063240;28;20200;-70
2021/04/11 04:11:17;;;;;;;6.23;3.60;;;;;;;8.50;90.02;95593.63;5062656;28;20270;-71
2021/04/11 04:14:14;;;;;;;6.27;3.60;;;;;;;8.66;85.22;95594.28;5063281;28;20616;-68
2021/04/11 04:16:55;;;;;;;8.60;4.17;;;;;;;8.84;81.50;95594.72;5061540;28;20278;-70
2021/04/11 04:19:32;;;;;;;11.67;5.30;;;;;;;8.78;86.71;95595.47;5063122;28;20200;-70
2021/04/11 04:22:07;;;;;;;10.13;5.30;;;;;;;8.78;87.93;95595.47;5062911;28;20276;-68
2021/04/11 04:24:46;;;;;;;8.47;5.10;;;;;;;8.80;87.82;95600.53;5063051;28;20204;-72
2021/04/11 04:27:33;;;;;;;7.87;5.13;;;;;;;8.80;87.79;95603.16;5061680;28;20310;-71
2021/04/11 04:30:11;;;;;;;7.77;4.87;;;;;;;8.88;83.76;95603.88;5060559;28;20685;-71
2021/04/11 04:32:54;;;;;;;7.13;4.97;;;;;;;8.87;85.03;95604.88;5058849;28;20253;-72
2021/04/11 04:35:26;;;;;;;8.20;5.30;;;;;;;8.79;88.13;95604.97;5059438;28;20228;-72
2021/04/11 04:38:02;;;;;;;8.27;5.17;;;;;;;8.63;88.27;95605.16;5058923;28;20280;-69
2021/04/11 04:40:37;;;;;;;7.33;5.13;;;;;;;8.72;88.09;95611.13;5059436;28;20208;-71
2021/04/11 04:43:15;;;;;;;8.13;5.10;;;;;;;8.75;89.75;95606.31;5059670;28;20203;-72
2021/04/11 04:45:45;;;;;;;6.47;4.77;;;;;;;8.80;88.05;95608.41;5058832;28;20220;-71
2021/04/11 04:48:18;;;;;;;7.20;4.50;;;;;;;8.87;85.67;95610.13;5058661;28;21127;-70
2021/04/11 04:50:50;;;;;;;8.00;4.77;;;;;;;8.97;84.92;95610.66;5059579;28;20209;-68
2021/04/11 04:53:20;;;;;;;13.40;4.80;;;;;;;9.00;86.48;95605.06;5059196;28;20250;-72
2021/04/11 04:55:52;;;;;;;6.47;4.47;;;;;;;9.12;85.43;95612.28;5058822;28;20224;-72
2021/04/11 04:58:26;;;;;;;10.10;4.97;;;;;;;9.08;87.03;95618.09;5059143;28;20208;-68
2021/04/11 05:00:56;;;;;;;7.60;4.67;;;;;;;8.98;85.69;95609.66;5059195;28;20211;-68
2021/04/11 05:03:26;;;;;;;7.23;5.10;;;;;;;9.07;86.55;95605.94;5055840;28;20204;-72
2021/04/11 05:05:58;;;;;;;8.67;4.60;;;;;;;9.07;84.83;95621.72;5058385;28;20262;-72
2021/04/11 05:08:29;;;;;;;7.27;4.77;;;;;;;9.01;85.88;95614.53;5058788;28;20208;-72
2021/04/11 05:11:02;;;;;;;7.20;4.47;;;;;;;8.91;86.97;95616.66;5058568;28;20208;-72
2021/04/11 05:13:36;;;;;;;10.17;5.20;;;;;;;8.85;87.44;95612.13;5058774;28;20223;-72
2021/04/11 05:16:08;;;;;;;9.47;4.77;;;;;;;8.88;87.36;95611.75;5057903;28;20225;-72
2021/04/11 05:18:39;;;;;;;8.57;4.73;;;;;;;8.91;87.99;95615.81;5058042;28;20200;-72
2021/04/11 05:21:11;;;;;;;8.00;4.83;;;;;;;8.97;88.97;95615.91;5058992;28;20239;-72
2021/04/11 05:23:42;;;;;;;10.07;5.57;;;;;;;9.12;87.62;95614.09;5058442;28;20287;-70
2021/04/11 05:26:15;;;;;;;5.43;3.63;;;;;;;9.08;92.06;95612.84;5057722;28;20225;-69
2021/04/11 05:28:47;;;;;;;5.50;3.47;;;;;;;9.13;92.12;95610.47;5058102;28;20207;-68
2021/04/11 05:31:18;;;;;;;5.27;3.93;;;;;;;8.93;95.79;95612.03;5058090;28;20214;-72
2021/04/11 05:33:46;;;;;;;7.53;3.60;;;;;;;9.03;93.55;95617.81;5058099;28;20279;-72
2021/04/11 05:36:25;;;;;;;7.27;4.07;;;;;;;9.08;92.13;95611.00;5057741;28;20659;-69
2021/04/11 05:39:01;;;;;;;7.33;3.70;;;;;;;9.19;93.92;95613.19;5057829;28;20273;-71
2021/04/11 05:41:35;;;;;;;7.93;3.63;;;;;;;9.34;93.59;95606.09;5057672;28;20302;-69
2021/04/11 05:44:10;;;;;;;8.40;3.57;;;;;;;9.45;94.59;95610.84;5057743;28;20731;-72
2021/04/11 05:46:42;;;;;;;9.57;3.90;;;;;;;9.46;95.22;95606.44;5057260;28;20212;-70
2021/04/11 05:49:12;;;;;;;9.10;3.73;;;;;;;9.57;95.61;95601.50;5058214;28;20204;-68
2021/04/11 05:51:42;;;;;;;7.20;3.77;;;;;;;9.61;96.93;95604.56;5057666;28;20277;-68
2021/04/11 05:54:15;;;;;;;6.47;3.73;;;;;;;9.67;95.48;95595.94;5058207;28;20292;-71
2021/04/11 05:56:45;;;;;;;6.47;3.77;;;;;;;9.69;95.48;95592.91;5057481;28;20595;-71
2021/04/11 05:59:16;;;;;;;7.13;3.60;;;;;;;9.68;95.79;95587.03;5058532;28;20333;-70
2021/04/11 06:01:45;;;;;;;6.80;3.73;;;;;;;9.72;96.36;95591.72;5057659;28;20199;-69
2021/04/11 06:04:14;;;;;;;4.87;3.00;;;;;;;9.71;95.06;95583.03;5058262;28;20577;-71
2021/04/11 06:06:47;;;;;;;5.87;3.60;;;;;;;9.80;96.62;95595.06;5056054;28;20220;-72
2021/04/11 06:09:23;;;;;;;5.03;3.50;;;;;;;9.75;94.10;95592.19;5058208;28;20201;-68
2021/04/11 06:11:55;;;;;;;7.80;3.70;;;;;;;9.70;95.72;95605.06;5056785;28;20261;-69
2021/04/11 06:14:26;;;;;;;6.30;4.17;;;;;;;9.64;98.53;95604.22;5057738;28;20211;-68
2021/04/11 06:16:53;;;;;;;10.67;5.00;;;;;;;9.74;90.72;95606.31;5056819;28;20224;-70
2021/04/11 06:19:20;;;;;;;8.70;5.03;;;;;;;9.76;86.85;95601.72;5057248;28;20204;-69
2021/04/11 06:21:54;;;;;;;8.07;5.07;;;;;;;9.95;88.41;95598.47;5057742;28;20199;-70
2021/04/11 06:24:39;;;;;;;8.23;5.67;;;;;;;9.87;91.90;95606.44;5057665;28;20208;-68
2021/04/11 06:27:16;;;;;;;9.70;5.27;;;;;;;10.01;89.37;95596.91;5056313;28;20216;-68
2021/04/11 06:29:54;;;;;;;8.27;5.10;;;;;;;10.06;86.47;95600.59;5057888;28;20681;-67
2021/04/11 06:32:22;;;;;;;9.40;5.13;;;;;;;10.14;85.50;95589.94;5056809;28;20208;-68
2021/04/11 06:34:52;;;;;;;11.03;5.03;;;;;;;10.25;84.25;95591.25;5057261;28;20238;-70
2021/04/11 06:37:21;;;;;;;10.50;5.17;;;;;;;10.29;82.06;95598.56;5056059;28;20228;-67
2021/04/11 06:39:50;;;;;;;11.70;5.50;;;;;;;10.22;79.89;95594.25;5057206;28;20208;-71
2021/04/11 06:42:32;;;;;;;9.13;4.90;;;;;;;10.24;80.06;95593.06;5057299;28;20227;-67
2021/04/11 06:45:12;;;;;;;8.70;4.80;;;;;;;10.28;77.65;95594.31;5057099;28;20212;-69
2021/04/11 06:48:22;;;;;;;6.60;4.40;;;;;;;10.44;77.89;95580.88;5056469;28;20200;-68
2021/04/11 06:51:08;;;;;;;11.93;4.60;;;;;;;10.52;78.51;95583.34;5057328;28;20208;-69
2021/04/11 06:53:49;;;;;;;6.67;4.43;;;;;;;10.57;77.44;95583.59;5056228;28;20265;-70
2021/04/11 06:56:27;;;;;;;6.67;4.87;;;;;;;10.55;76.78;95580.31;5056230;28;20239;-71
2021/04/11 06:59:05;;;;;;;8.67;4.60;;;;;;;10.52;79.20;95575.44;5056601;28;20204;-71
2021/04/11 07:02:02;;;;;;;7.50;5.27;;;;;;;10.63;79.22;95581.00;5057547;28;20215;-70
2021/04/11 07:04:53;;;;;;;7.20;4.90;;;;;;;10.81;79.47;95575.22;5054979;28;20204;-71
2021/04/11 07:08:04;;;;;;;8.70;4.63;;;;;;;10.91;78.10;95570.41;5056618;28;20220;-71
2021/04/11 07:10:43;;;;;;;7.97;4.93;;;;;;;11.02;77.40;95562.75;5057259;28;20204;-70
2021/04/11 07:13:55;;;;;;;6.88;4.70;;;;;;;11.22;76.67;95568.94;5056992;28;20212;-67
2021/04/11 07:16:49;;;;;;;10.68;5.00;;;;;;;11.42;75.69;95565.38;5056769;28;20624;-70
2021/04/11 07:19:57;;;;;;;8.57;4.70;;;;;;;11.50;75.96;95559.94;5056818;28;20227;-71
2021/04/11 07:22:58;;;;;;;8.17;5.00;;;;;;;12.07;75.01;95560.25;5060332;28;20208;-67
2021/04/11 07:25:35;;;;;;;10.50;4.10;;;;;;;12.59;75.60;95564.50;5055733;28;20320;-71
2021/04/11 07:28:24;;;;;;;8.23;3.80;;;;;;;13.19;71.01;95564.19;5058872;28;20269;-70
2021/04/11 07:30:58;;;;;;;9.63;5.47;;;;;;;13.12;66.53;95563.38;5055387;28;20479;-68
2021/04/11 07:33:58;;;;;;;8.50;4.90;;;;;;;12.94;69.61;95565.88;5056789;28;20246;-69
2021/04/11 07:37:03;;;;;;;10.35;4.97;;;;;;;12.92;68.90;95568.75;5055555;28;20228;-69
2021/04/11 07:39:44;;;;;;;9.02;5.00;;;;;;;12.82;69.38;95572.81;5056105;28;20204;-69
2021/04/11 07:42:50;;;;;;;7.68;5.10;;;;;;;12.85;67.69;95561.81;5057016;28;20200;-71
2021/04/11 07:45:27;;;;;;;7.60;5.07;;;;;;;13.00;66.99;95571.16;5054991;28;20240;-71
2021/04/11 07:48:25;;;;;;;7.38;4.72;;;;;;;12.96;67.73;95575.25;5056823;28;20204;-71
2021/04/11 07:51:30;;;;;;;8.88;4.90;;;;;;;12.97;67.95;95570.75;5036800;28;20678;-68
2021/04/11 07:54:20;;;;;;;6.43;4.50;;;;;;;13.19;66.44;95569.50;5056420;28;20212;-69
2021/04/11 07:57:01;;;;;;;7.13;4.57;;;;;;;13.38;64.89;95566.75;5055545;28;20335;-68
2021/04/11 07:59:39;;;;;;;7.25;4.32;;;;;;;13.48;65.66;95575.88;5056122;28;20237;-71
2021/04/11 08:02:56;;;;;;;8.40;4.30;;;;;;;13.59;65.32;95574.41;5056292;28;20207;-71
2021/04/11 08:05:36;;;;;;;6.95;3.95;;;;;;;13.75;64.15;95577.38;5049941;28;20277;-68
2021/04/11 08:08:20;;;;;;;9.57;4.15;;;;;;;13.92;63.67;95573.19;5059862;28;20200;-71
2021/04/11 08:11:14;;;;;;;6.47;4.25;;;;;;;13.99;64.43;95573.97;5059663;28;20208;-71
2021/04/11 08:13:51;;;;;;;7.30;4.38;;;;;;;14.28;61.90;95568.06;5051727;28;21000;-70
2021/04/11 08:16:29;;;;;;;6.40;3.88;;;;;;;14.34;61.59;95577.81;5058207;28;20232;-68
2021/04/11 08:19:31;;;;;;;7.03;3.38;;;;;;;14.27;61.86;95582.38;5059506;28;20269;-69
2021/04/11 08:22:05;;;;;;;6.65;3.92;;;;;;;14.39;60.72;95580.66;5060090;28;20200;-70
2021/04/11 08:24:49;;;;;;;6.07;3.50;;;;;;;14.53;59.79;95577.66;5058601;28;20200;-67
2021/04/11 08:27:46;;;;;;;6.70;4.05;;;;;;;14.59;60.10;95583.94;5058809;28;20224;-68
2021/04/11 08:30:41;;;;;;;8.70;4.20;;;;;;;14.73;60.56;95587.06;5058374;28;20215;-71
2021/04/11 08:33:19;;;;;;;6.50;4.20;;;;;;;14.91;60.57;95587.09;5058948;28;20419;-70
2021/04/11 08:36:12;;;;;;;6.43;4.13;;;;;;;15.22;59.57;95588.88;5057926;28;20224;-68
2021/04/11 08:39:01;;;;;;;5.13;3.70;;;;;;;15.44;57.62;95590.84;5054915;28;20734;-71
2021/04/11 08:41:47;;;;;;;6.63;3.53;;;;;;;15.51;57.44;95588.94;5058555;28;20310;-68
2021/04/11 08:44:25;;;;;;;7.60;3.40;;;;;;;15.62;55.48;95585.53;5059538;28;20204;-70
2021/04/11 08:47:02;;;;;;;7.82;3.03;;;;;;;15.72;56.59;95588.47;5058082;28;20274;-70
2021/04/11 08:49:45;;;;;;;6.50;3.65;;;;;;;15.81;55.95;95579.97;5059397;28;20206;-72
2021/04/11 08:52:22;;;;;;;5.88;2.97;;;;;;;16.06;55.47;95588.59;5059580;28;20226;-68
2021/04/11 08:54:50;;;;;;;7.38;3.13;;;;;;;16.35;55.05;95587.81;5059149;28;20200;-69
2021/04/11 08:57:33;;;;;;;4.88;3.08;;;;;;;16.57;53.84;95592.34;5057794;28;21254;-72
2021/04/11 09:00:09;;;;;;;4.90;2.50;;;;;;;16.56;52.69;95588.91;5059569;28;20536;-72
2021/04/11 09:02:52;;;;;;;6.07;3.13;;;;;;;16.44;52.93;95586.44;5058184;28;20200;-71
2021/04/11 09:05:26;;;;;;;6.47;3.45;;;;;;;16.65;54.17;95589.38;5058509;28;20226;-68
2021/04/11 09:08:04;;;;;;;5.93;3.40;;;;;;;16.65;52.41;95584.06;5058639;28;20205;-72
2021/04/11 09:10:48;;;;;;;6.47;2.88;;;;;;;16.95;50.91;95590.88;5058844;28;21158;-68
2021/04/11 09:13:21;;;;;;;7.15;2.88;;;;;;;17.18;52.39;95591.72;5058914;28;20208;-69
2021/04/11 09:15:54;;;;;;;6.07;2.40;;;;;;;17.17;49.02;95583.94;5058167;28;21026;-68
2021/04/11 09:18:29;;;;;;;22.52;9.20;;;;;;;17.00;50.26;95584.88;5058083;28;20311;-71
2021/04/11 09:21:14;;;;;;;4.70;3.08;;;;;;;17.17;49.93;95584.75;5058464;28;20204;-69
2021/04/11 09:23:49;;;;;;;3.65;2.63;;;;;;;17.20;50.34;95584.28;5059090;28;20196;-71
2021/04/11 09:26:30;;;;;;;4.18;2.60;;;;;;;17.30;50.51;95584.53;5057573;28;20232;-72
2021/04/11 09:29:08;;;;;;;3.70;2.20;;;;;;;17.31;52.30;95575.50;5057867;28;20215;-72
2021/04/11 09:31:58;;;;;;;3.33;2.42;;;;;;;17.24;50.44;95580.13;5057444;28;20208;-71
2021/04/11 09:35:04;;;;;;;10.60;5.47;;;;;;;17.13;49.07;95569.47;5057267;28;20209;-70
2021/04/11 09:38:00;;;;;;;8.00;3.55;;;;;;;17.35;49.42;95573.16;5007823;28;20228;-70
2021/04/11 09:40:40;;;;;;;5.95;2.88;;;;;;;17.67;48.11;95577.88;5037351;28;20205;-72
2021/04/11 09:43:35;;;;;;;6.57;2.95;;;;;;;17.88;47.85;95571.88;5057281;28;21126;-71
2021/04/11 09:46:26;;;;;;;6.90;3.78;;;;;;;18.01;45.38;95571.59;5057654;28;20236;-72
2021/04/11 09:49:39;;;;;;;7.63;2.90;;;;;;;17.91;44.58;95579.41;5057369;28;20200;-71
2021/04/11 09:52:32;;;;;;;3.50;2.22;;;;;;;17.63;45.16;95578.56;5011633;28;20204;-72
2021/04/11 09:55:10;;;;;;;3.25;2.00;;;;;;;18.14;44.35;95571.28;5055827;28;20253;-72
2021/04/11 09:57:55;;;;;;;5.25;2.42;;;;;;;18.08;45.03;95569.59;5056997;28;20289;-72
2021/04/11 10:00:30;;;;;;;4.57;2.13;;;;;;;18.58;43.99;95564.16;5056201;28;20197;-68
2021/04/11 10:03:23;;;;;;;2.38;1.40;;;;;;;18.71;41.76;95563.00;5055693;28;20221;-72
2021/04/11 10:06:02;;;;;;;2.28;1.60;;;;;;;18.80;42.88;95562.38;5056164;28;20244;-71
2021/04/11 10:08:39;;;;;;;3.17;1.80;;;;;;;18.83;41.28;95566.41;5057429;28;20201;-68
2021/04/11 10:11:30;;;;;;;5.20;1.70;;;;;;;18.78;42.71;95559.13;5056230;28;20211;-71
2021/04/11 10:14:32;;;;;;;2.15;1.40;;;;;;;18.64;43.12;95557.03;5056214;28;20257;-68
2021/04/11 10:17:08;;;;;;;2.05;1.40;;;;;;;18.38;43.25;95555.78;5056217;28;20236;-72
2021/04/11 10:19:56;;;;;;;2.67;1.48;;;;;;;18.36;41.98;95560.53;5056288;28;20203;-70
2021/04/11 10:22:43;;;;;;;4.15;1.45;;;;;;;18.35;42.42;95556.28;5056496;28;20592;-70
2021/04/11 10:25:16;;;;;;;2.28;1.50;;;;;;;18.39;42.85;95556.59;5056301;28;20204;-72
2021/04/11 10:27:48;;;;;;;5.65;1.75;;;;;;;18.25;43.15;95555.28;5056631;28;20266;-72
2021/04/11 10:30:17;;;;;;;3.58;1.85;;;;;;;18.05;43.35;95551.41;5056783;28;21018;-72
2021/04/11 10:32:48;;;;;;;4.22;2.78;;;;;;;18.03;44.14;95545.50;5057031;28;20674;-72
2021/04/11 10:35:23;;;;;;;4.70;1.70;;;;;;;18.10;42.75;95539.00;5056430;28;20302;-72
2021/04/11 10:37:56;;;;;;;2.25;1.50;;;;;;;18.10;44.00;95540.81;5056807;28;21240;-72
2021/04/11 10:40:33;;;;;;;27.25;13.32;;;;;;;18.08;43.71;95541.06;5056915;28;20220;-71
2021/04/11 10:43:07;;;;;;;4.82;2.78;;;;;;;18.09;44.05;95531.22;5055550;28;20856;-70
2021/04/11 10:45:39;;;;;;;4.72;2.65;;;;;;;18.22;44.19;95541.63;5055915;28;20223;-68
2021/04/11 10:48:27;;;;;;;20.40;8.82;;;;;;;18.55;43.30;95532.59;5057537;28;20205;-68
2021/04/11 10:51:13;;;;;;;3.78;2.03;;;;;;;18.81;41.50;95539.13;5055977;28;20681;-67
2021/04/11 10:53:48;;;;;;;16.25;6.10;;;;;;;18.76;42.02;95537.22;5056361;28;20200;-71
2021/04/11 10:56:32;;;;;;;10.35;4.93;;;;;;;18.97;41.72;95536.44;5056110;28;20228;-71
2021/04/11 10:59:31;;;;;;;7.30;3.58;;;;;;;19.02;42.20;95536.53;5057266;28;20204;-71
2021/04/11 11:02:33;;;;;;;5.10;2.30;;;;;;;19.36;41.00;95536.25;5056515;28;20204;-69
2021/04/11 11:05:32;;;;;;;4.45;1.60;;;;;;;19.17;41.50;95539.41;5054967;28;20208;-69
2021/04/11 11:08:18;;;;;;;2.25;1.45;;;;;;;19.23;40.83;95541.13;5054320;28;20345;-73
2021/04/11 11:10:59;;;;;;;4.22;2.70;;;;;;;19.35;40.81;95531.94;5054453;28;20277;-71
2021/04/11 11:13:38;;;;;;;3.47;2.33;;;;;;;19.26;40.99;95530.75;5056173;28;20207;-69
2021/04/11 11:16:32;;;;;;;7.15;3.38;;;;;;;19.21;41.12;95533.34;5054750;28;20228;-71
2021/04/11 11:19:20;;;;;;;3.33;2.20;;;;;;;18.92;42.05;95530.22;5055905;28;20211;-71
2021/04/11 11:22:03;;;;;;;3.80;1.80;;;;;;;18.96;42.25;95535.66;5055642;28;20197;-70
2021/04/11 11:25:02;;;;;;;2.65;1.60;;;;;;;18.92;42.13;95533.69;5056119;28;20212;-71
2021/04/11 11:28:05;;;;;;;2.15;1.52;;;;;;;19.10;41.74;95525.44;5056473;28;20214;-72
2021/04/11 11:30:45;;;;;;;3.80;1.70;;;;;;;19.11;42.84;95533.22;5055263;28;20682;-72
2021/04/11 11:33:28;;;;;;;2.67;1.60;;;;;;;18.90;41.98;95527.78;5053747;28;20261;-70
2021/04/11 11:36:08;;;;;;;5.68;2.03;;;;;;;18.80;41.80;95519.66;5054105;28;20648;-71
2021/04/11 11:38:42;;;;;;;3.42;1.65;;;;;;;18.65;41.73;95526.63;5054282;28;20224;-69
2021/04/11 11:41:13;;;;;;;4.68;1.60;;;;;;;18.91;42.20;95524.06;5059237;28;20341;-68
2021/04/11 11:43:53;;;;;;;7.43;1.70;;;;;;;19.58;42.62;95526.34;5060529;28;20188;-68
2021/04/11 11:46:26;;;;;;;6.20;1.70;;;;;;;20.09;39.63;95523.22;5058541;28;20286;-71
2021/04/11 11:49:01;;;;;;;2.42;1.40;;;;;;;20.31;40.56;95520.25;5059187;28;20200;-71
2021/04/11 11:51:43;;;;;;;3.90;1.50;;;;;;;20.83;39.55;95524.69;5059837;28;20203;-71
2021/04/11 11:54:18;;;;;;;1.40;1.30;;;;;;;20.71;38.42;95523.25;5059297;28;20205;-69
2021/04/11 11:56:56;;;;;;;2.10;1.63;;;;;;;20.25;39.10;95523.91;5058705;28;20227;-71
2021/04/11 11:59:27;;;;;;;3.08;1.50;;;;;;;19.71;41.37;95520.63;5060744;28;20215;-71
2021/04/11 12:01:58;;;;;;;3.22;1.30;;;;;;;20.61;39.52;95517.81;5059407;28;20204;-70
2021/04/11 12:04:41;;;;;;;5.40;1.73;;;;;;;20.93;37.90;95513.25;5060011;28;20335;-72
2021/04/11 12:07:17;;;;;;;2.28;1.42;;;;;;;21.20;38.84;95516.66;5057924;28;20672;-72
2021/04/11 12:09:46;;;;;;;2.67;1.40;;;;;;;21.51;37.57;95508.50;5059726;28;20399;-69
2021/04/11 12:12:17;;;;;;;3.40;1.40;;;;;;;21.40;37.08;95503.34;5059775;28;20607;-72
2021/04/11 12:14:53;;;;;;;2.85;1.50;;;;;;;21.02;38.84;95501.78;5059512;28;20286;-70
2021/04/11 12:17:25;;;;;;;2.45;1.20;;;;;;;21.29;37.61;95499.81;5058324;28;20224;-69
2021/04/11 12:19:58;;;;;;;2.08;0.90;;;;;;;21.41;35.20;95494.22;5059612;28;20204;-69